createdAt,value
2018-04-24T00:00:35.594Z,9.80
2018-04-24T00:01:35.780Z,9.90
2018-04-24T00:02:35.968Z,9.60
2018-04-24T00:03:36.155Z,9.70
2018-04-24T00:04:36.342Z,9.90
2018-04-24T00:05:36.530Z,9.90
2018-04-24T00:06:36.717Z,9.30
2018-04-24T00:07:36.911Z,10.00
2018-04-24T00:08:37.095Z,9.50
2018-04-24T00:09:37.278Z,9.20
2018-04-24T00:10:37.466Z,9.80
2018-04-24T00:11:37.650Z,8.90
2018-04-24T00:12:37.838Z,8.90
2018-04-24T00:13:38.026Z,9.50
2018-04-24T00:14:38.211Z,9.90
2018-04-24T00:15:38.396Z,10.10
2018-04-24T00:16:38.584Z,10.40
2018-04-24T00:17:38.774Z,10.60
2018-04-24T00:18:38.955Z,10.10
2018-04-24T00:19:39.142Z,10.90
2018-04-24T00:20:39.328Z,10.50
2018-04-24T00:21:39.514Z,10.20
2018-04-24T00:22:39.702Z,9.70
2018-04-24T00:23:39.890Z,10.20
2018-04-24T00:24:40.078Z,10.00
2018-04-24T00:25:40.262Z,10.20
2018-04-24T00:26:40.450Z,10.10
2018-04-24T00:27:40.635Z,10.90
2018-04-24T00:28:40.821Z,10.20
2018-04-24T00:29:41.018Z,10.00
2018-04-24T00:30:41.194Z,9.80
2018-04-24T00:31:41.381Z,9.90
2018-04-24T00:32:41.569Z,10.00
2018-04-24T00:33:41.755Z,9.80
2018-04-24T00:34:41.942Z,9.40
2018-04-24T00:35:42.129Z,9.60
2018-04-24T00:36:42.321Z,9.80
2018-04-24T00:37:42.504Z,9.20
2018-04-24T00:38:42.690Z,9.20
2018-04-24T00:39:42.876Z,9.50
2018-04-24T00:40:43.063Z,9.60
2018-04-24T00:41:43.250Z,10.00
2018-04-24T00:42:43.441Z,10.40
2018-04-24T00:43:43.625Z,10.10
2018-04-24T00:44:43.812Z,10.10
2018-04-24T00:45:44.028Z,9.50
2018-04-24T00:46:44.187Z,11.20
2018-04-24T00:47:44.372Z,11.70
2018-04-24T00:48:44.559Z,11.20
2018-04-24T00:49:44.745Z,11.00
2018-04-24T00:50:44.935Z,11.00
2018-04-24T00:51:45.119Z,10.90
2018-04-24T00:52:45.304Z,10.50
2018-04-24T00:53:45.493Z,10.30
2018-04-24T00:54:45.680Z,10.40
2018-04-24T00:55:45.867Z,10.50
2018-04-24T00:56:46.053Z,10.10
2018-04-24T00:57:46.240Z,10.10
2018-04-24T00:58:46.429Z,10.00
2018-04-24T00:59:46.613Z,10.00
2018-04-24T01:00:46.799Z,10.20
2018-04-24T01:01:46.985Z,10.10
2018-04-24T01:02:47.173Z,10.30
2018-04-24T01:03:47.358Z,10.70
2018-04-24T01:04:47.544Z,10.30
2018-04-24T01:05:47.731Z,10.30
2018-04-24T01:06:47.992Z,10.50
2018-04-24T01:07:48.106Z,10.80
2018-04-24T01:08:48.293Z,10.60
2018-04-24T01:09:48.479Z,10.60
2018-04-24T01:10:48.666Z,10.90
2018-04-24T01:11:48.851Z,10.80
2018-04-24T01:12:49.038Z,11.20
2018-04-24T01:13:49.226Z,11.10
2018-04-24T01:14:49.411Z,11.30
2018-04-24T01:15:49.601Z,11.10
2018-04-24T01:16:49.786Z,11.30
2018-04-24T01:17:49.975Z,11.90
2018-04-24T01:18:50.161Z,11.50
2018-04-24T01:19:50.346Z,11.10
2018-04-24T01:20:50.532Z,11.50
2018-04-24T01:21:50.718Z,11.10
2018-04-24T01:22:50.906Z,11.30
2018-04-24T01:23:51.092Z,12.00
2018-04-24T01:24:51.279Z,11.70
2018-04-24T01:25:51.464Z,10.70
2018-04-24T01:26:51.652Z,11.50
2018-04-24T01:27:51.838Z,11.80
2018-04-24T01:28:52.027Z,11.70
2018-04-24T01:29:52.211Z,11.80
2018-04-24T01:30:52.401Z,11.40
2018-04-24T01:31:52.588Z,11.20
2018-04-24T01:32:52.775Z,11.70
2018-04-24T01:33:52.960Z,11.80
2018-04-24T01:34:53.148Z,11.60
2018-04-24T01:35:53.334Z,12.00
2018-04-24T01:36:53.523Z,11.40
2018-04-24T01:37:53.707Z,11.70
2018-04-24T01:38:53.896Z,11.90
2018-04-24T01:39:54.079Z,10.40
2018-04-24T01:40:54.268Z,10.90
2018-04-24T01:41:54.457Z,11.10
2018-04-24T01:42:54.639Z,10.80
2018-04-24T01:43:54.829Z,10.80
2018-04-24T01:44:55.015Z,10.60
2018-04-24T01:45:55.198Z,10.90
2018-04-24T01:46:55.385Z,11.10
2018-04-24T01:47:55.570Z,10.50
2018-04-24T01:48:55.757Z,11.90
2018-04-24T01:49:55.944Z,12.20
2018-04-24T01:50:56.130Z,12.30
2018-04-24T01:51:56.317Z,12.30
2018-04-24T01:52:56.503Z,12.60
2018-04-24T01:53:56.689Z,11.20
2018-04-24T01:54:56.876Z,12.70
2018-04-24T01:55:57.064Z,12.40
2018-04-24T01:56:57.249Z,12.10
2018-04-24T01:57:57.435Z,12.10
2018-04-24T01:58:57.623Z,10.40
2018-04-24T01:59:57.808Z,11.20
2018-04-24T02:00:57.999Z,12.90
2018-04-24T02:01:58.181Z,12.70
2018-04-24T02:02:58.366Z,11.70
2018-04-24T02:03:58.551Z,12.30
2018-04-24T02:04:58.736Z,12.40
2018-04-24T02:05:58.922Z,12.20
2018-04-24T02:06:59.109Z,12.00
2018-04-24T02:07:59.297Z,11.50
2018-04-24T02:08:59.482Z,13.00
2018-04-24T02:09:59.669Z,13.10
2018-04-24T02:10:59.853Z,12.80
2018-04-24T02:12:00.040Z,12.80
2018-04-24T02:13:00.226Z,12.80
2018-04-24T02:14:00.411Z,13.00
2018-04-24T02:15:00.600Z,13.00
2018-04-24T02:16:00.783Z,12.60
2018-04-24T02:17:00.969Z,11.20
2018-04-24T02:18:01.155Z,12.90
2018-04-24T02:19:01.342Z,12.90
2018-04-24T02:20:01.527Z,12.30
2018-04-24T02:21:01.714Z,12.60
2018-04-24T02:22:01.900Z,12.30
2018-04-24T02:23:02.086Z,12.80
2018-04-24T02:24:02.273Z,13.00
2018-04-24T02:25:02.487Z,13.50
2018-04-24T02:26:02.645Z,13.50
2018-04-24T02:27:02.831Z,13.40
2018-04-24T02:28:03.021Z,12.80
2018-04-24T02:29:03.206Z,12.50
2018-04-24T02:30:03.392Z,12.80
2018-04-24T02:31:03.576Z,12.60
2018-04-24T02:32:03.765Z,12.90
2018-04-24T02:33:03.950Z,13.10
2018-04-24T02:34:04.138Z,13.30
2018-04-24T02:35:04.323Z,12.80
2018-04-24T02:36:04.512Z,12.40
2018-04-24T02:37:04.695Z,12.90
2018-04-24T02:38:04.883Z,11.80
2018-04-24T02:39:05.263Z,12.30
2018-04-24T02:40:05.293Z,13.00
2018-04-24T02:41:05.406Z,13.00
2018-04-24T02:42:05.593Z,13.20
2018-04-24T02:43:05.777Z,12.80
2018-04-24T02:44:05.965Z,13.40
2018-04-24T02:45:06.151Z,14.10
2018-04-24T02:46:06.337Z,13.40
2018-04-24T02:47:06.523Z,13.60
2018-04-24T02:48:06.710Z,14.80
2018-04-24T02:49:06.895Z,14.00
2018-04-24T02:50:07.082Z,13.40
2018-04-24T02:51:07.268Z,13.80
2018-04-24T02:52:07.540Z,13.80
2018-04-24T02:53:07.638Z,14.10
2018-04-24T02:54:07.823Z,14.50
2018-04-24T02:55:08.009Z,14.20
2018-04-24T02:56:08.194Z,14.00
2018-04-24T02:57:08.380Z,14.30
2018-04-24T02:58:08.565Z,13.70
2018-04-24T02:59:08.750Z,13.90
2018-04-24T03:00:08.937Z,13.70
2018-04-24T03:01:09.127Z,13.70
2018-04-24T03:02:09.310Z,14.50
2018-04-24T03:03:09.497Z,14.70
2018-04-24T03:04:09.686Z,14.90
2018-04-24T03:05:09.868Z,14.10
2018-04-24T03:06:10.054Z,14.70
2018-04-24T03:07:10.239Z,14.60
2018-04-24T03:08:10.425Z,14.90
2018-04-24T03:09:10.612Z,15.40
2018-04-24T03:10:10.798Z,14.80
2018-04-24T03:11:10.984Z,14.70
2018-04-24T03:12:11.172Z,15.20
2018-04-24T03:13:11.359Z,15.30
2018-04-24T03:14:11.540Z,14.00
2018-04-24T03:15:11.725Z,12.40
2018-04-24T03:16:11.913Z,12.60
2018-04-24T03:17:12.098Z,14.00
2018-04-24T03:18:12.283Z,13.90
2018-04-24T03:19:12.468Z,15.40
2018-04-24T03:20:12.653Z,14.00
2018-04-24T03:21:12.837Z,12.80
2018-04-24T03:22:13.024Z,11.10
2018-04-24T03:23:13.210Z,11.30
2018-04-24T03:24:13.395Z,13.00
2018-04-24T03:25:13.583Z,12.70
2018-04-24T03:26:13.766Z,14.10
2018-04-24T03:27:13.953Z,11.80
2018-04-24T03:28:14.140Z,14.30
2018-04-24T03:29:14.326Z,13.90
2018-04-24T03:30:14.511Z,15.30
2018-04-24T03:31:14.696Z,13.00
2018-04-24T03:32:14.882Z,13.40
2018-04-24T03:33:15.079Z,16.20
2018-04-24T03:34:15.254Z,15.70
2018-04-24T03:35:15.439Z,15.00
2018-04-24T03:36:15.634Z,14.80
2018-04-24T03:37:15.811Z,15.70
2018-04-24T03:38:15.998Z,15.80
2018-04-24T03:39:16.184Z,15.60
2018-04-24T03:40:16.371Z,14.50
2018-04-24T03:41:16.559Z,13.30
2018-04-24T03:42:16.744Z,12.20
2018-04-24T03:43:16.931Z,14.30
2018-04-24T03:44:17.116Z,14.70
2018-04-24T03:45:17.302Z,13.80
2018-04-24T03:46:17.491Z,13.90
2018-04-24T03:47:17.676Z,15.30
2018-04-24T03:48:17.863Z,15.60
2018-04-24T03:49:18.052Z,14.20
2018-04-24T03:50:18.234Z,15.40
2018-04-24T03:51:18.420Z,15.20
2018-04-24T03:52:18.607Z,15.30
2018-04-24T03:53:18.791Z,15.90
2018-04-24T03:54:18.977Z,15.10
2018-04-24T03:55:19.165Z,15.00
2018-04-24T03:56:19.348Z,14.80
2018-04-24T03:57:19.596Z,14.60
2018-04-24T03:58:19.719Z,14.80
2018-04-24T03:59:19.908Z,15.00
2018-04-24T04:00:20.095Z,15.20
2018-04-24T04:01:20.282Z,14.20
2018-04-24T04:02:20.467Z,15.00
2018-04-24T04:03:20.654Z,14.90
2018-04-24T04:04:20.839Z,14.50
2018-04-24T04:05:21.024Z,14.40
2018-04-24T04:06:21.210Z,14.10
2018-04-24T04:07:21.397Z,14.60
2018-04-24T04:08:21.581Z,14.20
2018-04-24T04:09:21.767Z,14.30
2018-04-24T04:10:21.952Z,14.60
2018-04-24T04:11:22.193Z,15.10
2018-04-24T04:12:22.318Z,14.90
2018-04-24T04:13:22.504Z,14.50
2018-04-24T04:14:22.691Z,14.60
2018-04-24T04:15:22.873Z,15.60
2018-04-24T04:16:23.058Z,14.70
2018-04-24T04:17:23.244Z,14.70
2018-04-24T04:18:23.438Z,14.80
2018-04-24T04:19:23.616Z,14.10
2018-04-24T04:20:23.803Z,15.30
2018-04-24T04:21:23.994Z,15.40
2018-04-24T04:22:24.200Z,14.50
2018-04-24T04:23:24.361Z,14.30
2018-04-24T04:24:24.546Z,14.00
2018-04-24T04:25:24.732Z,14.40
2018-04-24T04:26:24.918Z,12.70
2018-04-24T04:27:25.104Z,14.10
2018-04-24T04:28:25.289Z,14.30
2018-04-24T04:29:25.478Z,12.60
2018-04-24T04:30:25.664Z,13.30
2018-04-24T04:31:25.850Z,13.20
2018-04-24T04:32:26.035Z,12.80
2018-04-24T04:33:26.224Z,13.10
2018-04-24T04:34:26.411Z,12.50
2018-04-24T04:35:26.598Z,13.00
2018-04-24T04:36:26.784Z,12.90
2018-04-24T04:37:26.972Z,12.70
2018-04-24T04:38:27.161Z,12.30
2018-04-24T04:39:27.345Z,12.10
2018-04-24T04:40:27.533Z,11.90
2018-04-24T04:41:27.765Z,11.60
2018-04-24T04:42:27.905Z,12.40
2018-04-24T04:43:28.094Z,12.00
2018-04-24T04:44:28.282Z,11.70
2018-04-24T04:45:28.469Z,11.20
2018-04-24T04:46:28.653Z,11.30
2018-04-24T04:47:28.839Z,11.20
2018-04-24T04:48:29.026Z,10.90
2018-04-24T04:49:29.214Z,10.80
2018-04-24T04:50:29.399Z,10.40
2018-04-24T04:51:29.588Z,11.30
2018-04-24T04:52:29.776Z,11.40
2018-04-24T04:53:29.962Z,11.10
2018-04-24T04:54:30.150Z,11.00
2018-04-24T04:55:30.337Z,10.80
2018-04-24T04:56:30.522Z,10.70
2018-04-24T04:57:30.710Z,10.60
2018-04-24T04:58:30.898Z,10.80
2018-04-24T04:59:31.092Z,10.20
2018-04-24T05:00:31.273Z,10.50
2018-04-24T05:01:31.461Z,10.10
2018-04-24T05:02:31.648Z,10.00
2018-04-24T05:03:31.835Z,10.10
2018-04-24T05:04:32.025Z,9.90
2018-04-24T05:05:32.211Z,10.60
2018-04-24T05:06:32.399Z,10.10
2018-04-24T05:07:32.585Z,9.40
2018-04-24T05:08:32.774Z,10.20
2018-04-24T05:09:32.960Z,10.40
2018-04-24T05:10:33.149Z,10.10
2018-04-24T05:11:33.340Z,9.70
2018-04-24T05:12:33.524Z,9.50
2018-04-24T05:13:33.712Z,9.70
2018-04-24T05:14:33.900Z,9.00
2018-04-24T05:15:34.090Z,9.30
2018-04-24T05:16:34.277Z,9.30
2018-04-24T05:17:34.465Z,9.20
2018-04-24T05:18:34.653Z,9.30
2018-04-24T05:19:34.840Z,9.00
2018-04-24T05:20:35.027Z,9.20
2018-04-24T05:21:35.215Z,9.10
2018-04-24T05:22:35.403Z,9.00
2018-04-24T05:23:35.591Z,8.50
2018-04-24T05:24:35.779Z,9.10
2018-04-24T05:25:35.967Z,8.60
2018-04-24T05:26:36.159Z,8.90
2018-04-24T05:27:36.344Z,8.40
2018-04-24T05:28:36.531Z,8.30
2018-04-24T05:29:36.721Z,8.90
2018-04-24T05:30:36.909Z,9.10
2018-04-24T05:31:37.096Z,9.10
2018-04-24T05:32:37.281Z,9.70
2018-04-24T05:33:37.471Z,9.20
2018-04-24T05:34:37.662Z,8.70
2018-04-24T05:35:37.850Z,9.20
2018-04-24T05:36:38.040Z,9.20
2018-04-24T05:37:38.228Z,8.90
2018-04-24T05:38:38.416Z,8.70
2018-04-24T05:39:38.665Z,9.40
2018-04-24T05:40:38.793Z,9.50
2018-04-24T05:41:38.982Z,9.60
2018-04-24T05:42:39.172Z,9.70
2018-04-24T05:43:39.360Z,9.70
2018-04-24T05:44:39.553Z,9.20
2018-04-24T05:45:39.739Z,8.30
2018-04-24T05:46:39.928Z,8.60
2018-04-24T05:47:40.119Z,8.20
2018-04-24T05:48:40.307Z,8.40
2018-04-24T05:49:40.499Z,8.00
2018-04-24T05:50:40.687Z,7.70
2018-04-24T05:51:40.880Z,7.70
2018-04-24T05:52:41.071Z,7.30
2018-04-24T05:53:41.259Z,7.50
2018-04-24T05:54:41.456Z,7.10
2018-04-24T05:55:41.645Z,6.90
2018-04-24T05:56:41.842Z,7.00
2018-04-24T05:57:42.027Z,7.00
2018-04-24T05:58:42.219Z,7.00
2018-04-24T05:59:42.411Z,7.30
2018-04-24T06:00:42.607Z,6.80
2018-04-24T06:01:42.795Z,7.20
2018-04-24T06:02:42.989Z,7.00
2018-04-24T06:03:43.184Z,6.80
2018-04-24T06:04:43.381Z,7.00
2018-04-24T06:05:43.572Z,6.90
2018-04-24T06:06:43.762Z,6.60
2018-04-24T06:07:43.958Z,6.50
2018-04-24T06:08:44.147Z,6.00
2018-04-24T06:09:44.341Z,6.30
2018-04-24T06:10:44.535Z,6.20
2018-04-24T06:11:44.728Z,5.80
2018-04-24T06:12:44.923Z,6.10
2018-04-24T06:13:45.122Z,6.10
2018-04-24T06:14:45.314Z,6.10
2018-04-24T06:15:45.511Z,6.20
2018-04-24T06:16:45.708Z,5.90
2018-04-24T06:17:45.901Z,5.90
2018-04-24T06:18:46.096Z,5.80
2018-04-24T06:19:46.291Z,5.80
2018-04-24T06:20:46.489Z,5.50
2018-04-24T06:21:46.682Z,6.00
2018-04-24T06:22:46.880Z,5.70
2018-04-24T06:23:47.074Z,5.80
2018-04-24T06:24:47.273Z,5.40
2018-04-24T06:25:47.467Z,5.40
2018-04-24T06:26:47.665Z,5.50
2018-04-24T06:27:47.859Z,5.50
2018-04-24T06:28:48.059Z,5.20
2018-04-24T06:29:48.254Z,5.40
2018-04-24T06:30:48.453Z,5.20
2018-04-24T06:31:48.649Z,4.80
2018-04-24T06:32:48.846Z,4.60
2018-04-24T06:33:49.044Z,4.90
2018-04-24T06:34:49.242Z,4.80
2018-04-24T06:35:49.441Z,4.60
2018-04-24T06:36:49.639Z,4.70
2018-04-24T06:37:49.837Z,5.00
2018-04-24T06:38:50.040Z,5.20
2018-04-24T06:39:50.232Z,5.00
2018-04-24T06:40:50.431Z,4.70
2018-04-24T06:41:50.630Z,5.00
2018-04-24T06:42:50.828Z,5.00
2018-04-24T06:43:51.028Z,4.60
2018-04-24T06:44:51.227Z,5.10
2018-04-24T06:45:51.426Z,4.90
2018-04-24T06:46:51.626Z,4.90
2018-04-24T06:47:51.842Z,5.00
2018-04-24T06:48:52.028Z,5.30
2018-04-24T06:49:52.221Z,5.20
2018-04-24T06:50:52.420Z,5.00
2018-04-24T06:51:52.622Z,5.40
2018-04-24T06:52:52.817Z,4.90
2018-04-24T06:53:53.017Z,5.00
2018-04-24T06:54:53.216Z,5.10
2018-04-24T06:55:53.418Z,4.90
2018-04-24T06:56:53.613Z,4.90
2018-04-24T06:57:53.812Z,4.40
2018-04-24T06:58:54.011Z,4.70
2018-04-24T06:59:54.209Z,4.90
2018-04-24T07:00:54.454Z,4.70
2018-04-24T07:01:54.604Z,4.70
2018-04-24T07:02:54.800Z,4.60
2018-04-24T07:03:55.000Z,5.00
2018-04-24T07:04:55.195Z,4.80
2018-04-24T07:05:55.392Z,4.80
2018-04-24T07:06:55.589Z,4.90
2018-04-24T07:07:55.784Z,4.70
2018-04-24T07:08:55.982Z,4.80
2018-04-24T07:09:56.179Z,4.80
2018-04-24T07:10:56.374Z,4.80
2018-04-24T07:11:56.571Z,4.60
2018-04-24T07:12:56.768Z,4.70
2018-04-24T07:13:56.961Z,5.00
2018-04-24T07:14:57.156Z,4.90
2018-04-24T07:15:57.353Z,4.60
2018-04-24T07:16:57.593Z,4.60
2018-04-24T07:17:57.747Z,4.50
2018-04-24T07:18:57.942Z,4.80
2018-04-24T07:19:58.140Z,4.40
2018-04-24T07:20:58.336Z,4.40
2018-04-24T07:21:58.532Z,4.40
2018-04-24T07:22:58.731Z,4.20
2018-04-24T07:23:58.929Z,4.60
2018-04-24T07:24:59.125Z,4.20
2018-04-24T07:25:59.321Z,4.50
2018-04-24T07:26:59.516Z,4.10
2018-04-24T07:27:59.715Z,4.00
2018-04-24T07:28:59.911Z,3.60
2018-04-24T07:30:00.108Z,3.50
2018-04-24T07:31:00.305Z,3.00
2018-04-24T07:32:00.502Z,2.90
2018-04-24T07:33:00.727Z,3.00
2018-04-24T07:34:00.899Z,2.20
2018-04-24T07:35:01.095Z,2.10
2018-04-24T07:36:01.294Z,2.00
2018-04-24T07:37:01.492Z,2.00
2018-04-24T07:38:01.693Z,2.00
2018-04-24T07:39:01.887Z,2.00
2018-04-24T07:40:02.089Z,1.90
2018-04-24T07:41:02.289Z,1.90
2018-04-24T07:42:02.482Z,2.00
2018-04-24T07:43:02.679Z,1.90
2018-04-24T07:44:02.877Z,1.80
2018-04-24T07:45:03.076Z,1.90
2018-04-24T07:46:03.276Z,1.90
2018-04-24T07:47:03.474Z,1.80
2018-04-24T07:48:03.671Z,1.80
2018-04-24T07:49:03.874Z,1.90
2018-04-24T07:50:04.074Z,1.80
2018-04-24T07:51:04.272Z,2.00
2018-04-24T07:52:04.472Z,1.80
2018-04-24T07:53:04.668Z,1.70
2018-04-24T07:54:04.869Z,1.90
2018-04-24T07:55:05.071Z,1.60
2018-04-24T07:56:05.269Z,2.00
2018-04-24T07:57:05.470Z,1.80
2018-04-24T07:58:05.670Z,1.90
2018-04-24T07:59:05.871Z,1.70
2018-04-24T08:00:06.072Z,1.80
2018-04-24T08:01:06.271Z,1.70
2018-04-24T08:02:06.471Z,1.80
2018-04-24T08:03:06.669Z,1.70
2018-04-24T08:04:06.869Z,1.70
2018-04-24T08:05:07.073Z,1.70
2018-04-24T08:06:07.270Z,1.60
2018-04-24T08:07:07.471Z,1.60
2018-04-24T08:08:07.695Z,1.50
2018-04-24T08:09:07.871Z,1.60
2018-04-24T08:10:08.073Z,1.50
2018-04-24T08:11:08.278Z,1.60
2018-04-24T08:12:08.474Z,1.60
2018-04-24T08:13:08.675Z,1.70
2018-04-24T08:14:08.875Z,1.70
2018-04-24T08:15:09.075Z,1.50
2018-04-24T08:16:09.281Z,1.60
2018-04-24T08:17:09.476Z,1.70
2018-04-24T08:18:09.676Z,1.60
2018-04-24T08:19:09.876Z,1.70
2018-04-24T08:20:10.078Z,1.90
2018-04-24T08:21:10.279Z,1.70
2018-04-24T08:22:10.480Z,1.60
2018-04-24T08:23:10.680Z,1.70
2018-04-24T08:24:10.881Z,2.10
2018-04-24T08:25:11.085Z,1.80
2018-04-24T08:26:11.286Z,1.80
2018-04-24T08:27:11.485Z,1.80
2018-04-24T08:28:11.688Z,1.80
2018-04-24T08:29:11.888Z,1.90
2018-04-24T08:30:12.091Z,1.70
2018-04-24T08:31:12.292Z,1.80
2018-04-24T08:32:12.493Z,1.60
2018-04-24T08:33:12.697Z,1.60
2018-04-24T08:34:12.900Z,1.60
2018-04-24T08:35:13.099Z,1.80
2018-04-24T08:36:13.302Z,1.70
2018-04-24T08:37:13.505Z,1.80
2018-04-24T08:38:13.705Z,1.70
2018-04-24T08:39:13.907Z,2.00
2018-04-24T08:40:14.107Z,2.00
2018-04-24T08:41:14.312Z,1.70
2018-04-24T08:42:14.509Z,1.80
2018-04-24T08:43:14.710Z,1.90
2018-04-24T08:44:14.912Z,1.60
2018-04-24T08:45:15.114Z,1.50
2018-04-24T08:46:15.374Z,1.60
2018-04-24T08:47:15.517Z,1.90
2018-04-24T08:48:15.753Z,1.60
2018-04-24T08:49:15.923Z,1.80
2018-04-24T08:50:16.119Z,1.90
2018-04-24T08:51:16.320Z,1.90
2018-04-24T08:52:16.523Z,1.70
2018-04-24T08:53:16.721Z,1.70
2018-04-24T08:54:16.923Z,1.70
2018-04-24T08:55:17.127Z,1.70
2018-04-24T08:56:17.400Z,2.00
2018-04-24T08:57:17.527Z,1.80
2018-04-24T08:58:17.726Z,1.90
2018-04-24T08:59:17.933Z,2.00
2018-04-24T09:00:18.130Z,1.80
2018-04-24T09:01:18.331Z,1.90
2018-04-24T09:02:18.533Z,1.80
2018-04-24T09:03:18.732Z,1.90
2018-04-24T09:04:18.986Z,1.80
2018-04-24T09:05:19.133Z,1.90
2018-04-24T09:06:19.334Z,2.10
2018-04-24T09:07:19.535Z,2.10
2018-04-24T09:08:19.734Z,2.00
2018-04-24T09:09:19.933Z,2.10
2018-04-24T09:10:20.132Z,2.00
2018-04-24T09:11:20.333Z,2.20
2018-04-24T09:12:20.531Z,1.90
2018-04-24T09:13:20.742Z,2.00
2018-04-24T09:14:20.930Z,1.90
2018-04-24T09:15:21.129Z,1.90
2018-04-24T09:16:21.329Z,1.90
2018-04-24T09:17:21.527Z,2.00
2018-04-24T09:18:21.729Z,1.80
2018-04-24T09:19:21.929Z,2.10
2018-04-24T09:20:22.131Z,2.00
2018-04-24T09:21:22.325Z,1.90
2018-04-24T09:22:22.524Z,1.80
2018-04-24T09:23:22.722Z,1.90
2018-04-24T09:24:22.921Z,2.00
2018-04-24T09:25:23.120Z,2.00
2018-04-24T09:26:23.321Z,2.20
2018-04-24T09:27:23.518Z,2.20
2018-04-24T09:28:23.717Z,2.10
2018-04-24T09:29:23.916Z,2.10
2018-04-24T09:30:24.116Z,2.20
2018-04-24T09:31:24.313Z,1.90
2018-04-24T09:32:24.511Z,2.10
2018-04-24T09:33:24.740Z,2.10
2018-04-24T09:34:24.909Z,1.80
2018-04-24T09:35:25.108Z,2.20
2018-04-24T09:36:25.306Z,2.20
2018-04-24T09:37:25.508Z,1.80
2018-04-24T09:38:25.704Z,1.70
2018-04-24T09:39:25.908Z,1.60
2018-04-24T09:40:26.103Z,1.80
2018-04-24T09:41:26.301Z,1.70
2018-04-24T09:42:26.500Z,1.60
2018-04-24T09:43:26.698Z,1.60
2018-04-24T09:44:26.901Z,1.60
2018-04-24T09:45:27.096Z,1.30
2018-04-24T09:46:27.294Z,1.40
2018-04-24T09:47:27.494Z,1.60
2018-04-24T09:48:27.690Z,1.30
2018-04-24T09:49:27.934Z,1.40
2018-04-24T09:50:28.087Z,1.60
2018-04-24T09:51:28.287Z,1.60
2018-04-24T09:52:28.486Z,1.40
2018-04-24T09:53:28.685Z,1.70
2018-04-24T09:54:28.884Z,1.60
2018-04-24T09:55:29.083Z,1.90
2018-04-24T09:56:29.285Z,1.60
2018-04-24T09:57:29.479Z,1.50
2018-04-24T09:58:29.677Z,1.50
2018-04-24T09:59:29.879Z,1.40
2018-04-24T10:00:30.075Z,1.40
2018-04-24T10:01:30.272Z,1.40
2018-04-24T10:02:30.474Z,1.50
2018-04-24T10:03:30.674Z,1.40
2018-04-24T10:04:30.871Z,1.60
2018-04-24T10:05:31.067Z,1.40
2018-04-24T10:06:31.264Z,1.50
2018-04-24T10:07:31.462Z,1.40
2018-04-24T10:08:31.661Z,1.40
2018-04-24T10:09:31.859Z,1.80
2018-04-24T10:10:32.056Z,1.50
2018-04-24T10:11:32.255Z,1.40
2018-04-24T10:12:32.451Z,1.30
2018-04-24T10:13:32.745Z,1.70
2018-04-24T10:14:32.848Z,1.50
2018-04-24T10:15:33.045Z,1.80
2018-04-24T10:16:33.243Z,1.50
2018-04-24T10:17:33.442Z,1.30
2018-04-24T10:18:33.637Z,1.50
2018-04-24T10:19:33.833Z,1.40
2018-04-24T10:20:34.031Z,1.00
2018-04-24T10:21:34.228Z,1.30
2018-04-24T10:22:34.424Z,1.40
2018-04-24T10:23:34.621Z,1.50
2018-04-24T10:24:34.819Z,1.20
2018-04-24T10:25:35.016Z,1.40
2018-04-24T10:26:35.215Z,1.30
2018-04-24T10:27:35.410Z,1.30
2018-04-24T10:28:35.606Z,1.30
2018-04-24T10:29:35.804Z,1.20
2018-04-24T10:30:36.001Z,1.40
2018-04-24T10:31:36.199Z,1.30
2018-04-24T10:32:36.396Z,1.40
2018-04-24T10:33:36.597Z,1.60
2018-04-24T10:34:36.790Z,1.40
2018-04-24T10:35:36.985Z,1.20
2018-04-24T10:36:37.183Z,1.40
2018-04-24T10:37:37.380Z,1.50
2018-04-24T10:38:37.575Z,1.40
2018-04-24T10:39:37.774Z,1.30
2018-04-24T10:40:37.970Z,1.30
2018-04-24T10:41:38.165Z,1.40
2018-04-24T10:42:38.361Z,1.40
2018-04-24T10:43:38.560Z,1.30
2018-04-24T10:44:38.756Z,1.40
2018-04-24T10:45:38.952Z,1.10
2018-04-24T10:46:39.152Z,1.20
2018-04-24T10:47:39.349Z,1.10
2018-04-24T10:48:39.545Z,1.10
2018-04-24T10:49:39.742Z,1.40
2018-04-24T10:50:39.939Z,1.40
2018-04-24T10:51:40.150Z,1.20
2018-04-24T10:52:40.332Z,1.10
2018-04-24T10:53:40.529Z,1.20
2018-04-24T10:54:40.728Z,1.20
2018-04-24T10:55:40.925Z,1.30
2018-04-24T10:56:41.122Z,1.20
2018-04-24T10:57:41.317Z,1.20
2018-04-24T10:58:41.513Z,1.40
2018-04-24T10:59:41.711Z,1.30
2018-04-24T11:00:42.003Z,1.10
2018-04-24T11:01:42.104Z,1.30
2018-04-24T11:02:42.301Z,1.30
2018-04-24T11:03:42.499Z,1.30
2018-04-24T11:04:42.692Z,1.30
2018-04-24T11:05:42.889Z,1.30
2018-04-24T11:06:43.136Z,1.30
2018-04-24T11:07:43.283Z,1.20
2018-04-24T11:08:43.479Z,1.40
2018-04-24T11:09:43.677Z,1.30
2018-04-24T11:10:43.879Z,1.20
2018-04-24T11:11:44.068Z,1.30
2018-04-24T11:12:44.266Z,1.10
2018-04-24T11:13:44.465Z,1.20
2018-04-24T11:14:44.659Z,1.00
2018-04-24T11:15:44.855Z,1.30
2018-04-24T11:16:45.050Z,1.10
2018-04-24T11:17:45.247Z,1.30
2018-04-24T11:18:45.442Z,1.20
2018-04-24T11:19:45.638Z,1.20
2018-04-24T11:20:45.834Z,1.10
2018-04-24T11:21:46.034Z,1.20
2018-04-24T11:22:46.282Z,1.40
2018-04-24T11:23:46.420Z,1.10
2018-04-24T11:24:46.616Z,1.40
2018-04-24T11:25:46.812Z,1.40
2018-04-24T11:26:47.032Z,1.10
2018-04-24T11:27:47.205Z,1.10
2018-04-24T11:28:47.400Z,1.20
2018-04-24T11:29:47.597Z,1.10
2018-04-24T11:30:47.792Z,1.10
2018-04-24T11:31:47.990Z,1.10
2018-04-24T11:32:48.185Z,1.30
2018-04-24T11:33:48.381Z,1.40
2018-04-24T11:34:48.577Z,1.20
2018-04-24T11:35:48.773Z,1.20
2018-04-24T11:36:48.970Z,1.30
2018-04-24T11:37:49.165Z,1.40
2018-04-24T11:38:49.360Z,1.30
2018-04-24T11:39:49.559Z,1.50
2018-04-24T11:40:49.752Z,1.10
2018-04-24T11:41:49.949Z,1.30
2018-04-24T11:42:50.145Z,1.40
2018-04-24T11:43:50.361Z,1.10
2018-04-24T11:44:50.540Z,1.30
2018-04-24T11:45:50.731Z,1.10
2018-04-24T11:46:50.927Z,1.30
2018-04-24T11:47:51.120Z,1.20
2018-04-24T11:48:51.315Z,1.50
2018-04-24T11:49:51.510Z,1.40
2018-04-24T11:50:51.702Z,1.30
2018-04-24T11:51:51.899Z,1.50
2018-04-24T11:52:52.093Z,1.20
2018-04-24T11:53:52.288Z,1.30
2018-04-24T11:54:52.481Z,1.30
2018-04-24T11:55:52.676Z,1.50
2018-04-24T11:56:52.868Z,1.50
2018-04-24T11:57:53.062Z,1.40
2018-04-24T11:58:53.256Z,1.50
2018-04-24T11:59:53.449Z,1.40
2018-04-24T12:00:53.646Z,1.30
2018-04-24T12:01:53.841Z,1.50
2018-04-24T12:02:54.065Z,1.30
2018-04-24T12:03:54.226Z,1.80
2018-04-24T12:04:54.419Z,1.70
2018-04-24T12:05:54.614Z,1.70
2018-04-24T12:06:54.808Z,1.70
2018-04-24T12:07:55.003Z,1.60
2018-04-24T12:08:55.200Z,1.70
2018-04-24T12:09:55.390Z,1.60
2018-04-24T12:10:55.584Z,1.60
2018-04-24T12:11:55.778Z,1.70
2018-04-24T12:12:55.971Z,1.80
2018-04-24T12:13:56.164Z,1.90
2018-04-24T12:14:56.360Z,1.70
2018-04-24T12:15:56.554Z,1.70
2018-04-24T12:16:56.749Z,1.90
2018-04-24T12:17:56.941Z,1.80
2018-04-24T12:18:57.143Z,1.60
2018-04-24T12:19:57.332Z,1.50
2018-04-24T12:20:57.525Z,1.50
2018-04-24T12:21:57.716Z,1.40
2018-04-24T12:22:57.910Z,1.50
2018-04-24T12:23:58.106Z,1.40
2018-04-24T12:24:58.296Z,1.30
2018-04-24T12:25:58.490Z,1.30
2018-04-24T12:26:58.683Z,1.40
2018-04-24T12:27:58.876Z,1.30
2018-04-24T12:28:59.071Z,1.30
2018-04-24T12:29:59.262Z,1.50
2018-04-24T12:30:59.458Z,1.30
2018-04-24T12:31:59.652Z,1.30
2018-04-24T12:32:59.848Z,1.70
2018-04-24T12:34:00.041Z,1.60
2018-04-24T12:35:00.234Z,1.30
2018-04-24T12:36:00.428Z,1.50
2018-04-24T12:37:00.625Z,1.30
2018-04-24T12:38:00.822Z,1.20
2018-04-24T12:39:01.013Z,1.40
2018-04-24T12:40:01.201Z,1.20
2018-04-24T12:41:01.396Z,1.00
2018-04-24T12:42:01.598Z,1.30
2018-04-24T12:43:01.785Z,1.20
2018-04-24T12:44:01.977Z,1.20
2018-04-24T12:45:02.173Z,1.40
2018-04-24T12:46:02.366Z,1.10
2018-04-24T12:47:02.561Z,1.40
2018-04-24T12:48:02.753Z,1.40
2018-04-24T12:49:02.947Z,1.60
2018-04-24T12:50:03.143Z,1.10
2018-04-24T12:51:03.336Z,1.20
2018-04-24T12:52:03.529Z,1.00
2018-04-24T12:53:03.721Z,1.40
2018-04-24T12:54:03.920Z,1.00
2018-04-24T12:55:04.110Z,1.30
2018-04-24T12:56:04.306Z,1.10
2018-04-24T12:57:04.503Z,1.20
2018-04-24T12:58:04.695Z,1.10
2018-04-24T12:59:04.899Z,1.50
2018-04-24T13:00:05.082Z,1.20
2018-04-24T13:01:05.277Z,1.20
2018-04-24T13:02:05.469Z,1.10
2018-04-24T13:03:05.664Z,1.30
2018-04-24T13:04:05.858Z,1.20
2018-04-24T13:05:06.052Z,1.40
2018-04-24T13:06:06.245Z,1.20
2018-04-24T13:07:06.439Z,1.10
2018-04-24T13:08:06.637Z,1.20
2018-04-24T13:09:06.828Z,1.60
2018-04-24T13:10:07.024Z,1.30
2018-04-24T13:11:07.216Z,1.10
2018-04-24T13:12:07.411Z,1.20